sensor_id;sensor_type;location;lat;lon;timestamp;temperature;humidity
9201;DHT22;4635;48.686;9.008;2022-10-23T00:01:30;10.10;99.90
9201;DHT22;4635;48.686;9.008;2022-10-23T00:04:06;10.10;99.90
9201;DHT22;4635;48.686;9.008;2022-10-23T00:06:44;10.00;99.90
9201;DHT22;4635;48.686;9.008;2022-10-23T00:09:20;9.90;99.90
9201;DHT22;4635;48.686;9.008;2022-10-23T00:11:58;9.90;99.90
9201;DHT22;4635;48.686;9.008;2022-10-23T00:14:32;10.00;99.90
9201;DHT22;4635;48.686;9.008;2022-10-23T00:17:06;10.00;99.90
9201;DHT22;4635;48.686;9.008;2022-10-23T00:19:41;10.00;99.90
9201;DHT22;4635;48.686;9.008;2022-10-23T00:22:18;10.00;99.90
9201;DHT22;4635;48.686;9.008;2022-10-23T00:24:52;9.90;99.90
9201;DHT22;4635;48.686;9.008;2022-10-23T00:27:29;10.00;99.90
9201;DHT22;4635;48.686;9.008;2022-10-23T00:30:07;9.90;99.90
9201;DHT22;4635;48.686;9.008;2022-10-23T00:32:42;9.90;99.90
9201;DHT22;4635;48.686;9.008;2022-10-23T00:35:20;9.90;99.90
9201;DHT22;4635;48.686;9.008;2022-10-23T00:37:55;9.80;99.90
9201;DHT22;4635;48.686;9.008;2022-10-23T00:40:30;9.80;99.90
9201;DHT22;4635;48.686;9.008;2022-10-23T00:43:12;9.80;99.90
9201;DHT22;4635;48.686;9.008;2022-10-23T00:45:53;9.80;99.90
9201;DHT22;4635;48.686;9.008;2022-10-23T00:48:29;9.80;99.90
9201;DHT22;4635;48.686;9.008;2022-10-23T00:51:09;9.80;99.90
9201;DHT22;4635;48.686;9.008;2022-10-23T00:53:45;9.80;99.90
9201;DHT22;4635;48.686;9.008;2022-10-23T00:56:23;9.80;99.90
9201;DHT22;4635;48.686;9.008;2022-10-23T00:59:01;9.80;99.90
9201;DHT22;4635;48.686;9.008;2022-10-23T01:01:36;9.80;99.90
9201;DHT22;4635;48.686;9.008;2022-10-23T01:04:11;9.70;99.90
9201;DHT22;4635;48.686;9.008;2022-10-23T01:06:54;9.70;99.90
9201;DHT22;4635;48.686;9.008;2022-10-23T01:09:35;9.60;99.90
9201;DHT22;4635;48.686;9.008;2022-10-23T01:12:13;9.60;99.90
9201;DHT22;4635;48.686;9.008;2022-10-23T01:14:59;9.60;99.90
9201;DHT22;4635;48.686;9.008;2022-10-23T01:17:38;9.50;99.90
9201;DHT22;4635;48.686;9.008;2022-10-23T01:20:26;9.50;99.90
9201;DHT22;4635;48.686;9.008;2022-10-23T01:23:25;9.50;99.90
9201;DHT22;4635;48.686;9.008;2022-10-23T01:26:23;9.50;99.90
9201;DHT22;4635;48.686;9.008;2022-10-23T01:29:07;9.50;99.90
9201;DHT22;4635;48.686;9.008;2022-10-23T01:31:47;9.50;99.90
9201;DHT22;4635;48.686;9.008;2022-10-23T01:34:25;9.50;99.90
9201;DHT22;4635;48.686;9.008;2022-10-23T01:37:02;9.50;99.90
9201;DHT22;4635;48.686;9.008;2022-10-23T01:39:39;9.50;99.90
9201;DHT22;4635;48.686;9.008;2022-10-23T01:42:19;9.40;99.90
9201;DHT22;4635;48.686;9.008;2022-10-23T01:45:01;9.40;99.90
9201;DHT22;4635;48.686;9.008;2022-10-23T01:47:37;9.40;99.90
9201;DHT22;4635;48.686;9.008;2022-10-23T01:50:14;9.50;99.90
9201;DHT22;4635;48.686;9.008;2022-10-23T01:52:53;9.50;99.90
9201;DHT22;4635;48.686;9.008;2022-10-23T01:55:30;9.50;99.90
9201;DHT22;4635;48.686;9.008;2022-10-23T01:58:08;9.40;99.90
9201;DHT22;4635;48.686;9.008;2022-10-23T02:00:54;9.40;99.90
9201;DHT22;4635;48.686;9.008;2022-10-23T02:03:34;9.40;99.90
9201;DHT22;4635;48.686;9.008;2022-10-23T02:06:16;9.30;99.90
9201;DHT22;4635;48.686;9.008;2022-10-23T02:08:54;9.30;99.90
9201;DHT22;4635;48.686;9.008;2022-10-23T02:11:34;9.30;99.90
9201;DHT22;4635;48.686;9.008;2022-10-23T02:14:16;9.30;99.90
9201;DHT22;4635;48.686;9.008;2022-10-23T02:17:04;9.30;99.90
9201;DHT22;4635;48.686;9.008;2022-10-23T02:19:49;9.30;99.90
9201;DHT22;4635;48.686;9.008;2022-10-23T02:22:32;9.30;99.90
9201;DHT22;4635;48.686;9.008;2022-10-23T02:25:12;9.30;99.90
9201;DHT22;4635;48.686;9.008;2022-10-23T02:27:54;9.30;99.90
9201;DHT22;4635;48.686;9.008;2022-10-23T02:30:31;9.30;99.90
9201;DHT22;4635;48.686;9.008;2022-10-23T02:33:20;9.30;99.90
9201;DHT22;4635;48.686;9.008;2022-10-23T02:35:56;9.30;99.90
9201;DHT22;4635;48.686;9.008;2022-10-23T02:38:36;9.30;99.90
9201;DHT22;4635;48.686;9.008;2022-10-23T02:41:27;9.20;99.90
9201;DHT22;4635;48.686;9.008;2022-10-23T02:44:23;9.20;99.90
9201;DHT22;4635;48.686;9.008;2022-10-23T02:47:07;9.20;99.90
9201;DHT22;4635;48.686;9.008;2022-10-23T02:49:50;9.20;99.90
9201;DHT22;4635;48.686;9.008;2022-10-23T02:52:30;9.20;99.90
9201;DHT22;4635;48.686;9.008;2022-10-23T02:55:21;9.20;99.90
9201;DHT22;4635;48.686;9.008;2022-10-23T02:58:05;9.20;99.90
9201;DHT22;4635;48.686;9.008;2022-10-23T03:00:43;9.30;99.90
9201;DHT22;4635;48.686;9.008;2022-10-23T03:03:21;9.30;99.90
9201;DHT22;4635;48.686;9.008;2022-10-23T03:06:01;9.30;99.90
9201;DHT22;4635;48.686;9.008;2022-10-23T03:08:43;9.30;99.90
9201;DHT22;4635;48.686;9.008;2022-10-23T03:11:20;9.30;99.90
9201;DHT22;4635;48.686;9.008;2022-10-23T03:13:55;9.30;99.90
9201;DHT22;4635;48.686;9.008;2022-10-23T03:16:32;9.30;99.90
9201;DHT22;4635;48.686;9.008;2022-10-23T03:19:06;9.30;99.90
9201;DHT22;4635;48.686;9.008;2022-10-23T03:21:48;9.30;99.90
9201;DHT22;4635;48.686;9.008;2022-10-23T03:24:23;9.40;99.90
9201;DHT22;4635;48.686;9.008;2022-10-23T03:26:57;9.40;99.90
9201;DHT22;4635;48.686;9.008;2022-10-23T03:29:34;9.40;99.90
9201;DHT22;4635;48.686;9.008;2022-10-23T03:32:18;9.40;99.90
9201;DHT22;4635;48.686;9.008;2022-10-23T03:34:54;9.50;99.90
9201;DHT22;4635;48.686;9.008;2022-10-23T03:37:41;9.60;99.90
9201;DHT22;4635;48.686;9.008;2022-10-23T03:40:20;9.60;99.90
9201;DHT22;4635;48.686;9.008;2022-10-23T03:43:02;9.60;99.90
9201;DHT22;4635;48.686;9.008;2022-10-23T03:45:43;9.60;99.90
9201;DHT22;4635;48.686;9.008;2022-10-23T03:48:20;9.60;99.90
9201;DHT22;4635;48.686;9.008;2022-10-23T03:50:56;9.60;99.90
9201;DHT22;4635;48.686;9.008;2022-10-23T03:53:34;9.60;99.90
9201;DHT22;4635;48.686;9.008;2022-10-23T03:56:10;9.50;99.90
9201;DHT22;4635;48.686;9.008;2022-10-23T03:58:44;9.50;99.90
9201;DHT22;4635;48.686;9.008;2022-10-23T04:01:20;9.50;99.90
9201;DHT22;4635;48.686;9.008;2022-10-23T04:03:53;9.40;99.90
9201;DHT22;4635;48.686;9.008;2022-10-23T04:06:27;9.40;99.90
9201;DHT22;4635;48.686;9.008;2022-10-23T04:09:07;9.40;99.90
9201;DHT22;4635;48.686;9.008;2022-10-23T04:11:45;9.40;99.90
9201;DHT22;4635;48.686;9.008;2022-10-23T04:14:22;9.50;99.90
9201;DHT22;4635;48.686;9.008;2022-10-23T04:16:55;9.50;99.90
9201;DHT22;4635;48.686;9.008;2022-10-23T04:19:30;9.50;99.90
9201;DHT22;4635;48.686;9.008;2022-10-23T04:22:06;9.50;99.90
9201;DHT22;4635;48.686;9.008;2022-10-23T04:24:44;9.40;99.90
9201;DHT22;4635;48.686;9.008;2022-10-23T04:27:19;9.40;99.90
9201;DHT22;4635;48.686;9.008;2022-10-23T04:29:53;9.50;99.90
9201;DHT22;4635;48.686;9.008;2022-10-23T04:32:30;9.50;99.90
9201;DHT22;4635;48.686;9.008;2022-10-23T04:35:07;9.60;99.90
9201;DHT22;4635;48.686;9.008;2022-10-23T04:37:48;9.60;99.90
9201;DHT22;4635;48.686;9.008;2022-10-23T04:40:26;9.60;99.90
9201;DHT22;4635;48.686;9.008;2022-10-23T04:43:04;9.60;99.90
9201;DHT22;4635;48.686;9.008;2022-10-23T04:45:36;9.60;99.90
9201;DHT22;4635;48.686;9.008;2022-10-23T04:48:12;9.60;99.90
9201;DHT22;4635;48.686;9.008;2022-10-23T04:51:02;9.60;99.90
9201;DHT22;4635;48.686;9.008;2022-10-23T04:53:37;9.60;99.90
9201;DHT22;4635;48.686;9.008;2022-10-23T04:56:16;9.70;99.90
9201;DHT22;4635;48.686;9.008;2022-10-23T04:58:51;9.60;99.90
9201;DHT22;4635;48.686;9.008;2022-10-23T05:01:27;9.60;99.90
9201;DHT22;4635;48.686;9.008;2022-10-23T05:04:01;9.70;99.90
9201;DHT22;4635;48.686;9.008;2022-10-23T05:06:37;9.70;99.90
9201;DHT22;4635;48.686;9.008;2022-10-23T05:09:18;9.60;99.90
9201;DHT22;4635;48.686;9.008;2022-10-23T05:12:02;9.60;99.90
9201;DHT22;4635;48.686;9.008;2022-10-23T05:14:38;9.50;99.90
9201;DHT22;4635;48.686;9.008;2022-10-23T05:17:16;9.60;99.90
9201;DHT22;4635;48.686;9.008;2022-10-23T05:19:56;9.50;99.90
9201;DHT22;4635;48.686;9.008;2022-10-23T05:22:37;9.60;99.90
9201;DHT22;4635;48.686;9.008;2022-10-23T05:25:13;9.60;99.90
9201;DHT22;4635;48.686;9.008;2022-10-23T05:27:51;9.60;99.90
9201;DHT22;4635;48.686;9.008;2022-10-23T05:30:26;9.60;99.90
9201;DHT22;4635;48.686;9.008;2022-10-23T05:33:02;9.60;99.90
9201;DHT22;4635;48.686;9.008;2022-10-23T05:35:38;9.70;99.90
9201;DHT22;4635;48.686;9.008;2022-10-23T05:38:15;9.70;99.90
9201;DHT22;4635;48.686;9.008;2022-10-23T05:40:52;9.70;99.90
9201;DHT22;4635;48.686;9.008;2022-10-23T05:43:35;9.70;99.90
9201;DHT22;4635;48.686;9.008;2022-10-23T05:46:09;9.80;99.90
9201;DHT22;4635;48.686;9.008;2022-10-23T05:48:43;9.70;99.90
9201;DHT22;4635;48.686;9.008;2022-10-23T05:51:18;9.70;99.90
9201;DHT22;4635;48.686;9.008;2022-10-23T05:53:53;9.80;99.90
9201;DHT22;4635;48.686;9.008;2022-10-23T05:56:28;9.80;99.90
9201;DHT22;4635;48.686;9.008;2022-10-23T05:59:05;9.60;99.90
9201;DHT22;4635;48.686;9.008;2022-10-23T06:01:40;9.80;99.90
9201;DHT22;4635;48.686;9.008;2022-10-23T06:04:19;9.80;99.90
9201;DHT22;4635;48.686;9.008;2022-10-23T06:06:53;9.80;99.90
9201;DHT22;4635;48.686;9.008;2022-10-23T06:09:31;9.80;99.90
9201;DHT22;4635;48.686;9.008;2022-10-23T06:12:06;9.70;99.90
9201;DHT22;4635;48.686;9.008;2022-10-23T06:14:42;9.80;99.90
9201;DHT22;4635;48.686;9.008;2022-10-23T06:17:17;9.80;99.90
9201;DHT22;4635;48.686;9.008;2022-10-23T06:19:52;9.80;99.90
9201;DHT22;4635;48.686;9.008;2022-10-23T06:22:32;9.80;99.90
9201;DHT22;4635;48.686;9.008;2022-10-23T06:25:09;9.80;99.90
9201;DHT22;4635;48.686;9.008;2022-10-23T06:27:46;9.90;99.90
9201;DHT22;4635;48.686;9.008;2022-10-23T06:30:23;9.90;99.90
9201;DHT22;4635;48.686;9.008;2022-10-23T06:32:56;9.90;99.90
9201;DHT22;4635;48.686;9.008;2022-10-23T06:35:31;10.00;99.90
9201;DHT22;4635;48.686;9.008;2022-10-23T06:38:09;10.10;99.90
9201;DHT22;4635;48.686;9.008;2022-10-23T06:40:43;10.10;99.90
9201;DHT22;4635;48.686;9.008;2022-10-23T06:43:22;10.10;99.90
9201;DHT22;4635;48.686;9.008;2022-10-23T06:46:01;10.10;99.90
9201;DHT22;4635;48.686;9.008;2022-10-23T06:48:36;10.20;99.90
9201;DHT22;4635;48.686;9.008;2022-10-23T06:51:10;10.30;99.90
9201;DHT22;4635;48.686;9.008;2022-10-23T06:53:46;10.30;99.90
9201;DHT22;4635;48.686;9.008;2022-10-23T06:56:19;10.30;99.90
9201;DHT22;4635;48.686;9.008;2022-10-23T06:58:58;10.40;99.90
9201;DHT22;4635;48.686;9.008;2022-10-23T07:01:38;10.50;99.90
9201;DHT22;4635;48.686;9.008;2022-10-23T07:04:16;10.50;99.90
9201;DHT22;4635;48.686;9.008;2022-10-23T07:06:54;10.50;99.90
9201;DHT22;4635;48.686;9.008;2022-10-23T07:09:29;10.60;99.90
9201;DHT22;4635;48.686;9.008;2022-10-23T07:12:04;10.80;99.90
9201;DHT22;4635;48.686;9.008;2022-10-23T07:14:42;10.90;99.90
9201;DHT22;4635;48.686;9.008;2022-10-23T07:17:19;11.00;99.90
9201;DHT22;4635;48.686;9.008;2022-10-23T07:19:54;11.10;99.90
9201;DHT22;4635;48.686;9.008;2022-10-23T07:22:31;11.10;99.90
9201;DHT22;4635;48.686;9.008;2022-10-23T07:25:11;11.30;99.90
9201;DHT22;4635;48.686;9.008;2022-10-23T07:27:48;11.40;99.90
9201;DHT22;4635;48.686;9.008;2022-10-23T07:30:25;11.50;99.90
9201;DHT22;4635;48.686;9.008;2022-10-23T07:33:03;11.70;99.90
9201;DHT22;4635;48.686;9.008;2022-10-23T07:35:41;11.90;99.90
9201;DHT22;4635;48.686;9.008;2022-10-23T07:38:16;12.00;99.90
9201;DHT22;4635;48.686;9.008;2022-10-23T07:40:51;12.20;99.90
9201;DHT22;4635;48.686;9.008;2022-10-23T07:43:28;12.20;99.90
9201;DHT22;4635;48.686;9.008;2022-10-23T07:46:04;12.20;99.90
9201;DHT22;4635;48.686;9.008;2022-10-23T07:48:43;12.30;99.90
9201;DHT22;4635;48.686;9.008;2022-10-23T07:51:22;12.50;99.90
9201;DHT22;4635;48.686;9.008;2022-10-23T07:53:57;12.80;99.90
9201;DHT22;4635;48.686;9.008;2022-10-23T07:56:32;13.00;99.90
9201;DHT22;4635;48.686;9.008;2022-10-23T07:59:08;13.20;99.90
9201;DHT22;4635;48.686;9.008;2022-10-23T08:01:46;13.40;99.90
9201;DHT22;4635;48.686;9.008;2022-10-23T08:04:27;13.80;99.90
9201;DHT22;4635;48.686;9.008;2022-10-23T08:07:01;14.60;99.90
9201;DHT22;4635;48.686;9.008;2022-10-23T08:09:38;15.40;99.90
9201;DHT22;4635;48.686;9.008;2022-10-23T08:12:17;16.50;99.90
9201;DHT22;4635;48.686;9.008;2022-10-23T08:14:54;17.30;99.90
9201;DHT22;4635;48.686;9.008;2022-10-23T08:17:28;18.00;95.80
9201;DHT22;4635;48.686;9.008;2022-10-23T08:20:07;19.00;76.70
9201;DHT22;4635;48.686;9.008;2022-10-23T08:22:43;20.50;57.80
9201;DHT22;4635;48.686;9.008;2022-10-23T08:25:18;21.30;40.90
9201;DHT22;4635;48.686;9.008;2022-10-23T08:27:57;21.20;40.30
9201;DHT22;4635;48.686;9.008;2022-10-23T08:30:32;21.30;38.10
9201;DHT22;4635;48.686;9.008;2022-10-23T08:33:09;21.10;37.00
9201;DHT22;4635;48.686;9.008;2022-10-23T08:35:50;20.20;43.40
9201;DHT22;4635;48.686;9.008;2022-10-23T08:38:28;19.00;55.20
9201;DHT22;4635;48.686;9.008;2022-10-23T08:41:05;18.30;66.40
9201;DHT22;4635;48.686;9.008;2022-10-23T08:43:48;17.80;70.00
9201;DHT22;4635;48.686;9.008;2022-10-23T08:46:27;18.10;82.70
9201;DHT22;4635;48.686;9.008;2022-10-23T08:49:19;18.80;67.80
9201;DHT22;4635;48.686;9.008;2022-10-23T08:52:01;19.50;57.70
9201;DHT22;4635;48.686;9.008;2022-10-23T08:54:47;20.90;42.90
9201;DHT22;4635;48.686;9.008;2022-10-23T08:57:32;22.30;29.60
9201;DHT22;4635;48.686;9.008;2022-10-23T09:00:21;24.00;14.60
9201;DHT22;4635;48.686;9.008;2022-10-23T09:02:55;25.00;1.00
9201;DHT22;4635;48.686;9.008;2022-10-23T09:05:32;25.60;1.00
9201;DHT22;4635;48.686;9.008;2022-10-23T09:08:24;25.70;1.00
9201;DHT22;4635;48.686;9.008;2022-10-23T09:11:05;26.00;1.00
9201;DHT22;4635;48.686;9.008;2022-10-23T09:13:56;26.70;1.00
9201;DHT22;4635;48.686;9.008;2022-10-23T09:16:42;27.30;1.00
9201;DHT22;4635;48.686;9.008;2022-10-23T09:19:19;26.10;1.00
9201;DHT22;4635;48.686;9.008;2022-10-23T09:21:55;26.80;1.00
9201;DHT22;4635;48.686;9.008;2022-10-23T09:24:31;24.90;1.00
9201;DHT22;4635;48.686;9.008;2022-10-23T09:27:04;23.60;1.00
9201;DHT22;4635;48.686;9.008;2022-10-23T09:29:48;22.10;1.00
9201;DHT22;4635;48.686;9.008;2022-10-23T09:32:33;22.00;1.00
9201;DHT22;4635;48.686;9.008;2022-10-23T09:35:19;22.90;1.00
9201;DHT22;4635;48.686;9.008;2022-10-23T09:37:56;23.40;1.00
9201;DHT22;4635;48.686;9.008;2022-10-23T09:40:39;23.10;1.00
9201;DHT22;4635;48.686;9.008;2022-10-23T09:43:16;22.30;1.00
9201;DHT22;4635;48.686;9.008;2022-10-23T09:46:01;23.00;1.00
9201;DHT22;4635;48.686;9.008;2022-10-23T09:48:42;24.30;1.00
9201;DHT22;4635;48.686;9.008;2022-10-23T09:51:18;25.60;1.00
9201;DHT22;4635;48.686;9.008;2022-10-23T09:53:54;26.80;1.00
9201;DHT22;4635;48.686;9.008;2022-10-23T09:56:38;27.60;1.00
9201;DHT22;4635;48.686;9.008;2022-10-23T09:59:22;28.50;1.00
9201;DHT22;4635;48.686;9.008;2022-10-23T10:01:58;29.00;1.00
9201;DHT22;4635;48.686;9.008;2022-10-23T10:04:35;28.50;1.00
9201;DHT22;4635;48.686;9.008;2022-10-23T10:07:20;27.40;1.00
9201;DHT22;4635;48.686;9.008;2022-10-23T10:09:55;26.40;1.00
9201;DHT22;4635;48.686;9.008;2022-10-23T10:12:45;26.30;1.00
9201;DHT22;4635;48.686;9.008;2022-10-23T10:15:31;25.60;1.00
9201;DHT22;4635;48.686;9.008;2022-10-23T10:18:18;24.50;1.00
9201;DHT22;4635;48.686;9.008;2022-10-23T10:21:01;23.90;1.00
9201;DHT22;4635;48.686;9.008;2022-10-23T10:23:44;24.30;1.00
9201;DHT22;4635;48.686;9.008;2022-10-23T10:26:29;25.10;1.00
9201;DHT22;4635;48.686;9.008;2022-10-23T10:29:22;25.30;1.00
9201;DHT22;4635;48.686;9.008;2022-10-23T10:32:09;24.30;1.00
9201;DHT22;4635;48.686;9.008;2022-10-23T10:34:49;23.20;1.00
9201;DHT22;4635;48.686;9.008;2022-10-23T10:37:33;22.60;1.00
9201;DHT22;4635;48.686;9.008;2022-10-23T10:40:18;22.10;1.00
9201;DHT22;4635;48.686;9.008;2022-10-23T10:43:12;21.60;1.00
9201;DHT22;4635;48.686;9.008;2022-10-23T10:46:00;20.50;1.00
9201;DHT22;4635;48.686;9.008;2022-10-23T10:48:48;19.80;4.50
9201;DHT22;4635;48.686;9.008;2022-10-23T10:51:32;19.60;9.30
9201;DHT22;4635;48.686;9.008;2022-10-23T10:54:28;19.50;11.40
9201;DHT22;4635;48.686;9.008;2022-10-23T10:57:12;19.60;15.60
9201;DHT22;4635;48.686;9.008;2022-10-23T10:59:52;20.00;16.00
9201;DHT22;4635;48.686;9.008;2022-10-23T11:02:34;20.30;13.50
9201;DHT22;4635;48.686;9.008;2022-10-23T11:05:23;20.60;9.50
9201;DHT22;4635;48.686;9.008;2022-10-23T11:08:03;20.70;7.00
9201;DHT22;4635;48.686;9.008;2022-10-23T11:10:41;20.90;6.20
9201;DHT22;4635;48.686;9.008;2022-10-23T11:13:26;21.00;7.90
9201;DHT22;4635;48.686;9.008;2022-10-23T11:16:10;21.00;7.30
9201;DHT22;4635;48.686;9.008;2022-10-23T11:18:56;21.00;6.10
9201;DHT22;4635;48.686;9.008;2022-10-23T11:21:37;20.90;8.80
9201;DHT22;4635;48.686;9.008;2022-10-23T11:24:47;20.80;9.50
9201;DHT22;4635;48.686;9.008;2022-10-23T11:27:47;20.50;9.00
9201;DHT22;4635;48.686;9.008;2022-10-23T11:30:33;20.70;10.90
9201;DHT22;4635;48.686;9.008;2022-10-23T11:36:47;20.40;12.30
9201;DHT22;4635;48.686;9.008;2022-10-23T11:39:29;20.40;14.30
9201;DHT22;4635;48.686;9.008;2022-10-23T11:42:26;20.50;12.60
9201;DHT22;4635;48.686;9.008;2022-10-23T11:45:01;20.60;12.60
9201;DHT22;4635;48.686;9.008;2022-10-23T11:47:37;20.60;13.80
9201;DHT22;4635;48.686;9.008;2022-10-23T11:50:27;20.90;13.30
9201;DHT22;4635;48.686;9.008;2022-10-23T11:53:26;21.00;14.00
9201;DHT22;4635;48.686;9.008;2022-10-23T11:56:04;21.40;12.20
9201;DHT22;4635;48.686;9.008;2022-10-23T11:59:13;21.60;12.30
9201;DHT22;4635;48.686;9.008;2022-10-23T12:01:58;21.40;13.00
9201;DHT22;4635;48.686;9.008;2022-10-23T12:04:39;21.60;12.10
9201;DHT22;4635;48.686;9.008;2022-10-23T12:07:25;21.70;9.90
9201;DHT22;4635;48.686;9.008;2022-10-23T12:10:04;21.80;10.00
9201;DHT22;4635;48.686;9.008;2022-10-23T12:12:40;22.00;9.90
9201;DHT22;4635;48.686;9.008;2022-10-23T12:15:22;21.90;9.40
9201;DHT22;4635;48.686;9.008;2022-10-23T12:18:06;21.70;9.80
9201;DHT22;4635;48.686;9.008;2022-10-23T12:20:44;21.80;10.40
9201;DHT22;4635;48.686;9.008;2022-10-23T12:23:45;21.80;8.90
9201;DHT22;4635;48.686;9.008;2022-10-23T12:26:42;22.00;9.80
9201;DHT22;4635;48.686;9.008;2022-10-23T12:29:29;22.20;8.80
9201;DHT22;4635;48.686;9.008;2022-10-23T12:32:46;22.20;7.10
9201;DHT22;4635;48.686;9.008;2022-10-23T12:35:53;22.30;8.90
9201;DHT22;4635;48.686;9.008;2022-10-23T12:38:40;22.30;6.90
9201;DHT22;4635;48.686;9.008;2022-10-23T12:41:20;22.70;5.90
9201;DHT22;4635;48.686;9.008;2022-10-23T12:44:00;23.80;1.00
9201;DHT22;4635;48.686;9.008;2022-10-23T12:46:40;24.80;1.00
9201;DHT22;4635;48.686;9.008;2022-10-23T12:49:18;26.50;1.00
9201;DHT22;4635;48.686;9.008;2022-10-23T12:51:57;27.90;1.00
9201;DHT22;4635;48.686;9.008;2022-10-23T12:54:36;28.90;1.00
9201;DHT22;4635;48.686;9.008;2022-10-23T12:57:26;29.70;1.00
9201;DHT22;4635;48.686;9.008;2022-10-23T13:00:18;31.20;1.00
9201;DHT22;4635;48.686;9.008;2022-10-23T13:03:02;31.40;1.00
9201;DHT22;4635;48.686;9.008;2022-10-23T13:05:36;31.10;1.00
9201;DHT22;4635;48.686;9.008;2022-10-23T13:08:15;31.60;1.00
9201;DHT22;4635;48.686;9.008;2022-10-23T13:10:48;32.60;1.00
9201;DHT22;4635;48.686;9.008;2022-10-23T13:13:24;32.80;1.00
9201;DHT22;4635;48.686;9.008;2022-10-23T13:16:01;33.10;1.00
9201;DHT22;4635;48.686;9.008;2022-10-23T13:18:49;33.90;1.00
9201;DHT22;4635;48.686;9.008;2022-10-23T13:21:34;34.10;1.00
9201;DHT22;4635;48.686;9.008;2022-10-23T13:24:41;32.30;1.00
9201;DHT22;4635;48.686;9.008;2022-10-23T13:27:32;30.30;1.00
9201;DHT22;4635;48.686;9.008;2022-10-23T13:32:57;28.90;1.00
9201;DHT22;4635;48.686;9.008;2022-10-23T13:35:30;28.00;1.00
9201;DHT22;4635;48.686;9.008;2022-10-23T13:38:09;26.80;1.00
9201;DHT22;4635;48.686;9.008;2022-10-23T13:40:53;25.30;1.00
9201;DHT22;4635;48.686;9.008;2022-10-23T13:43:29;24.40;1.00
9201;DHT22;4635;48.686;9.008;2022-10-23T13:46:02;23.70;1.00
9201;DHT22;4635;48.686;9.008;2022-10-23T13:48:39;23.30;1.00
9201;DHT22;4635;48.686;9.008;2022-10-23T13:51:20;22.90;1.00
9201;DHT22;4635;48.686;9.008;2022-10-23T13:53:58;22.40;1.00
9201;DHT22;4635;48.686;9.008;2022-10-23T13:56:35;22.00;1.00
9201;DHT22;4635;48.686;9.008;2022-10-23T13:59:18;21.80;1.40
9201;DHT22;4635;48.686;9.008;2022-10-23T14:01:56;21.60;7.90
9201;DHT22;4635;48.686;9.008;2022-10-23T14:04:34;21.20;15.70
9201;DHT22;4635;48.686;9.008;2022-10-23T14:07:08;20.90;23.90
9201;DHT22;4635;48.686;9.008;2022-10-23T14:09:46;20.70;29.60
9201;DHT22;4635;48.686;9.008;2022-10-23T14:12:26;20.50;36.50
9201;DHT22;4635;48.686;9.008;2022-10-23T14:15:06;20.30;43.20
9201;DHT22;4635;48.686;9.008;2022-10-23T14:17:43;20.20;48.70
9201;DHT22;4635;48.686;9.008;2022-10-23T14:20:30;20.10;52.40
9201;DHT22;4635;48.686;9.008;2022-10-23T14:23:06;20.00;50.70
9201;DHT22;4635;48.686;9.008;2022-10-23T14:25:51;20.00;51.90
9201;DHT22;4635;48.686;9.008;2022-10-23T14:28:26;19.90;1.00
9201;DHT22;4635;48.686;9.008;2022-10-23T14:31:08;19.80;1.00
9201;DHT22;4635;48.686;9.008;2022-10-23T14:33:44;19.80;1.00
9201;DHT22;4635;48.686;9.008;2022-10-23T14:36:22;19.70;1.00
9201;DHT22;4635;48.686;9.008;2022-10-23T14:38:59;19.60;1.00
9201;DHT22;4635;48.686;9.008;2022-10-23T14:41:34;19.50;1.00
9201;DHT22;4635;48.686;9.008;2022-10-23T14:44:15;19.50;1.00
9201;DHT22;4635;48.686;9.008;2022-10-23T14:46:53;19.40;1.00
9201;DHT22;4635;48.686;9.008;2022-10-23T14:49:28;19.40;1.00
9201;DHT22;4635;48.686;9.008;2022-10-23T14:52:11;19.40;1.00
9201;DHT22;4635;48.686;9.008;2022-10-23T14:57:55;19.50;1.00
9201;DHT22;4635;48.686;9.008;2022-10-23T15:00:30;19.50;1.00
9201;DHT22;4635;48.686;9.008;2022-10-23T15:03:05;19.60;1.00
9201;DHT22;4635;48.686;9.008;2022-10-23T15:05:43;19.40;1.00
9201;DHT22;4635;48.686;9.008;2022-10-23T15:08:27;19.40;61.20
9201;DHT22;4635;48.686;9.008;2022-10-23T15:11:05;19.40;24.30
9201;DHT22;4635;48.686;9.008;2022-10-23T15:13:41;19.50;16.90
9201;DHT22;4635;48.686;9.008;2022-10-23T15:16:16;19.50;55.50
9201;DHT22;4635;48.686;9.008;2022-10-23T15:18:58;19.50;58.90
9201;DHT22;4635;48.686;9.008;2022-10-23T15:21:33;19.50;95.30
9201;DHT22;4635;48.686;9.008;2022-10-23T15:24:10;19.50;99.90
9201;DHT22;4635;48.686;9.008;2022-10-23T15:26:44;19.40;99.90
9201;DHT22;4635;48.686;9.008;2022-10-23T15:29:23;19.30;99.90
9201;DHT22;4635;48.686;9.008;2022-10-23T15:32:05;19.10;1.00
9201;DHT22;4635;48.686;9.008;2022-10-23T15:34:50;19.00;99.90
9201;DHT22;4635;48.686;9.008;2022-10-23T15:37:28;18.90;99.90
9201;DHT22;4635;48.686;9.008;2022-10-23T15:40:17;18.90;1.00
9201;DHT22;4635;48.686;9.008;2022-10-23T15:42:57;18.90;99.90
9201;DHT22;4635;48.686;9.008;2022-10-23T15:45:36;18.80;99.90
9201;DHT22;4635;48.686;9.008;2022-10-23T15:48:14;18.60;1.00
9201;DHT22;4635;48.686;9.008;2022-10-23T15:50:50;18.50;1.00
9201;DHT22;4635;48.686;9.008;2022-10-23T15:53:27;18.40;1.00
9201;DHT22;4635;48.686;9.008;2022-10-23T15:56:10;18.40;1.00
9201;DHT22;4635;48.686;9.008;2022-10-23T15:58:47;18.50;1.00
9201;DHT22;4635;48.686;9.008;2022-10-23T16:01:21;18.70;1.00
9201;DHT22;4635;48.686;9.008;2022-10-23T16:04:00;18.80;99.90
9201;DHT22;4635;48.686;9.008;2022-10-23T16:06:46;18.80;99.90
9201;DHT22;4635;48.686;9.008;2022-10-23T16:09:31;18.80;99.90
9201;DHT22;4635;48.686;9.008;2022-10-23T16:12:10;18.60;1.00
9201;DHT22;4635;48.686;9.008;2022-10-23T16:14:48;18.60;1.00
9201;DHT22;4635;48.686;9.008;2022-10-23T16:17:26;18.50;1.00
9201;DHT22;4635;48.686;9.008;2022-10-23T16:20:01;18.50;1.00
9201;DHT22;4635;48.686;9.008;2022-10-23T16:22:42;18.40;99.90
9201;DHT22;4635;48.686;9.008;2022-10-23T16:25:20;18.20;99.90
9201;DHT22;4635;48.686;9.008;2022-10-23T16:27:59;18.10;1.00
9201;DHT22;4635;48.686;9.008;2022-10-23T16:30:41;18.00;1.00
9201;DHT22;4635;48.686;9.008;2022-10-23T16:33:23;17.90;1.00
9201;DHT22;4635;48.686;9.008;2022-10-23T16:36:07;17.80;1.00
9201;DHT22;4635;48.686;9.008;2022-10-23T16:38:55;17.90;93.00
9201;DHT22;4635;48.686;9.008;2022-10-23T16:41:38;17.80;42.60
9201;DHT22;4635;48.686;9.008;2022-10-23T16:44:33;17.90;1.00
9201;DHT22;4635;48.686;9.008;2022-10-23T16:47:13;17.90;8.10
9201;DHT22;4635;48.686;9.008;2022-10-23T16:49:53;17.90;99.90
9201;DHT22;4635;48.686;9.008;2022-10-23T16:52:30;17.80;99.90
9201;DHT22;4635;48.686;9.008;2022-10-23T16:55:06;17.80;99.90
9201;DHT22;4635;48.686;9.008;2022-10-23T16:57:44;17.80;99.90
9201;DHT22;4635;48.686;9.008;2022-10-23T17:00:34;17.80;1.00
9201;DHT22;4635;48.686;9.008;2022-10-23T17:03:12;17.80;1.00
9201;DHT22;4635;48.686;9.008;2022-10-23T17:05:47;17.80;99.90
9201;DHT22;4635;48.686;9.008;2022-10-23T17:08:23;17.70;1.00
9201;DHT22;4635;48.686;9.008;2022-10-23T17:11:08;17.60;99.90
9201;DHT22;4635;48.686;9.008;2022-10-23T17:13:46;17.50;1.00
9201;DHT22;4635;48.686;9.008;2022-10-23T17:16:33;17.30;1.00
9201;DHT22;4635;48.686;9.008;2022-10-23T17:19:08;17.30;1.00
9201;DHT22;4635;48.686;9.008;2022-10-23T17:21:50;17.20;1.00
9201;DHT22;4635;48.686;9.008;2022-10-23T17:24:25;17.20;1.00
9201;DHT22;4635;48.686;9.008;2022-10-23T17:27:05;17.20;1.00
9201;DHT22;4635;48.686;9.008;2022-10-23T17:29:46;17.30;78.90
9201;DHT22;4635;48.686;9.008;2022-10-23T17:32:25;17.40;94.20
9201;DHT22;4635;48.686;9.008;2022-10-23T17:35:00;17.20;1.00
9201;DHT22;4635;48.686;9.008;2022-10-23T17:37:38;17.00;99.90
9201;DHT22;4635;48.686;9.008;2022-10-23T17:40:14;16.80;99.90
9201;DHT22;4635;48.686;9.008;2022-10-23T17:42:52;16.60;1.00
9201;DHT22;4635;48.686;9.008;2022-10-23T17:45:30;16.50;1.00